sensor_id;sensor_type;location;lat;lon;timestamp;P1;durP1;ratioP1;P2;durP2;ratioP2
1024;SDS011;501;48.214;11.350;2023-06-26T00:00:27;11.90;;;10.70;;
1024;SDS011;501;48.214;11.350;2023-06-26T00:02:52;10.63;;;9.53;;
1024;SDS011;501;48.214;11.350;2023-06-26T00:05:18;10.60;;;9.50;;
1024;SDS011;501;48.214;11.350;2023-06-26T00:07:44;12.50;;;10.20;;
1024;SDS011;501;48.214;11.350;2023-06-26T00:10:09;13.23;;;9.80;;
1024;SDS011;501;48.214;11.350;2023-06-26T00:12:35;11.97;;;10.67;;
1024;SDS011;501;48.214;11.350;2023-06-26T00:15:00;13.70;;;11.17;;
1024;SDS011;501;48.214;11.350;2023-06-26T00:17:26;12.47;;;10.20;;
1024;SDS011;501;48.214;11.350;2023-06-26T00:19:52;14.50;;;9.73;;
1024;SDS011;501;48.214;11.350;2023-06-26T00:22:18;11.70;;;10.50;;
1024;SDS011;501;48.214;11.350;2023-06-26T00:24:44;11.33;;;10.10;;
1024;SDS011;501;48.214;11.350;2023-06-26T00:27:12;10.73;;;9.60;;
1024;SDS011;501;48.214;11.350;2023-06-26T00:29:38;12.27;;;9.47;;
1024;SDS011;501;48.214;11.350;2023-06-26T00:32:04;11.37;;;9.60;;
1024;SDS011;501;48.214;11.350;2023-06-26T00:34:30;10.37;;;9.23;;
1024;SDS011;501;48.214;11.350;2023-06-26T00:36:55;11.90;;;10.07;;
1024;SDS011;501;48.214;11.350;2023-06-26T00:39:21;11.17;;;9.77;;
1024;SDS011;501;48.214;11.350;2023-06-26T00:41:47;12.13;;;10.80;;
1024;SDS011;501;48.214;11.350;2023-06-26T00:44:12;10.83;;;9.50;;
1024;SDS011;501;48.214;11.350;2023-06-26T00:46:38;12.50;;;10.27;;
1024;SDS011;501;48.214;11.350;2023-06-26T00:49:04;10.40;;;9.33;;
1024;SDS011;501;48.214;11.350;2023-06-26T00:53:58;11.50;;;9.57;;
1024;SDS011;501;48.214;11.350;2023-06-26T00:56:24;10.33;;;9.27;;
1024;SDS011;501;48.214;11.350;2023-06-26T00:58:51;16.00;;;10.80;;
1024;SDS011;501;48.214;11.350;2023-06-26T01:01:16;11.40;;;8.57;;
1024;SDS011;501;48.214;11.350;2023-06-26T01:03:45;11.57;;;8.60;;
1024;SDS011;501;48.214;11.350;2023-06-26T01:06:17;11.80;;;9.60;;
1024;SDS011;501;48.214;11.350;2023-06-26T01:08:43;9.80;;;8.40;;
1024;SDS011;501;48.214;11.350;2023-06-26T01:11:10;11.10;;;9.10;;
1024;SDS011;501;48.214;11.350;2023-06-26T01:13:37;10.17;;;9.10;;
1024;SDS011;501;48.214;11.350;2023-06-26T01:16:04;9.80;;;8.80;;
1024;SDS011;501;48.214;11.350;2023-06-26T01:18:31;13.03;;;9.40;;
1024;SDS011;501;48.214;11.350;2023-06-26T01:20:58;12.03;;;10.10;;
1024;SDS011;501;48.214;11.350;2023-06-26T01:23:35;10.63;;;9.30;;
1024;SDS011;501;48.214;11.350;2023-06-26T01:26:19;11.40;;;9.30;;
1024;SDS011;501;48.214;11.350;2023-06-26T01:28:47;10.13;;;9.00;;
1024;SDS011;501;48.214;11.350;2023-06-26T01:31:14;11.47;;;9.97;;
1024;SDS011;501;48.214;11.350;2023-06-26T01:33:40;10.83;;;9.73;;
1024;SDS011;501;48.214;11.350;2023-06-26T01:36:07;13.87;;;10.10;;
1024;SDS011;501;48.214;11.350;2023-06-26T01:38:33;10.70;;;8.73;;
1024;SDS011;501;48.214;11.350;2023-06-26T01:41:00;12.27;;;9.83;;
1024;SDS011;501;48.214;11.350;2023-06-26T01:46:23;14.80;;;10.07;;
1024;SDS011;501;48.214;11.350;2023-06-26T01:49:03;14.37;;;10.30;;
1024;SDS011;501;48.214;11.350;2023-06-26T01:51:38;12.67;;;9.83;;
1024;SDS011;501;48.214;11.350;2023-06-26T01:54:13;11.07;;;9.87;;
1024;SDS011;501;48.214;11.350;2023-06-26T01:56:42;10.40;;;9.03;;
1024;SDS011;501;48.214;11.350;2023-06-26T01:59:11;13.67;;;9.70;;
1024;SDS011;501;48.214;11.350;2023-06-26T02:01:39;13.87;;;9.87;;
1024;SDS011;501;48.214;11.350;2023-06-26T02:04:04;12.53;;;10.17;;
1024;SDS011;501;48.214;11.350;2023-06-26T02:06:30;11.50;;;10.20;;
1024;SDS011;501;48.214;11.350;2023-06-26T02:08:56;12.50;;;10.20;;
1024;SDS011;501;48.214;11.350;2023-06-26T02:11:22;10.27;;;9.10;;
1024;SDS011;501;48.214;11.350;2023-06-26T02:13:47;10.70;;;8.63;;
1024;SDS011;501;48.214;11.350;2023-06-26T02:16:13;11.40;;;10.10;;
1024;SDS011;501;48.214;11.350;2023-06-26T02:18:39;11.67;;;9.50;;
1024;SDS011;501;48.214;11.350;2023-06-26T02:21:05;11.40;;;9.63;;
1024;SDS011;501;48.214;11.350;2023-06-26T02:23:31;12.23;;;9.87;;
1024;SDS011;501;48.214;11.350;2023-06-26T02:25:57;18.60;;;9.93;;
1024;SDS011;501;48.214;11.350;2023-06-26T02:28:22;11.20;;;10.10;;
1024;SDS011;501;48.214;11.350;2023-06-26T02:30:48;13.67;;;10.40;;
1024;SDS011;501;48.214;11.350;2023-06-26T02:33:14;11.17;;;9.50;;
1024;SDS011;501;48.214;11.350;2023-06-26T02:35:39;14.47;;;11.40;;
1024;SDS011;501;48.214;11.350;2023-06-26T02:38:06;11.60;;;9.33;;
1024;SDS011;501;48.214;11.350;2023-06-26T02:40:32;9.67;;;8.67;;
1024;SDS011;501;48.214;11.350;2023-06-26T02:42:58;12.23;;;9.63;;
1024;SDS011;501;48.214;11.350;2023-06-26T02:45:23;12.13;;;9.03;;
1024;SDS011;501;48.214;11.350;2023-06-26T02:47:49;10.17;;;8.80;;
1024;SDS011;501;48.214;11.350;2023-06-26T02:50:15;12.37;;;9.87;;
1024;SDS011;501;48.214;11.350;2023-06-26T02:52:40;11.90;;;10.03;;
1024;SDS011;501;48.214;11.350;2023-06-26T02:55:06;12.90;;;10.40;;
1024;SDS011;501;48.214;11.350;2023-06-26T02:57:32;9.80;;;8.80;;
1024;SDS011;501;48.214;11.350;2023-06-26T02:59:58;12.37;;;10.03;;
1024;SDS011;501;48.214;11.350;2023-06-26T03:02:23;13.20;;;10.40;;
1024;SDS011;501;48.214;11.350;2023-06-26T03:04:49;12.70;;;9.10;;
1024;SDS011;501;48.214;11.350;2023-06-26T03:07:15;12.77;;;9.77;;
1024;SDS011;501;48.214;11.350;2023-06-26T03:09:41;12.27;;;10.80;;
1024;SDS011;501;48.214;11.350;2023-06-26T03:12:06;12.80;;;10.53;;
1024;SDS011;501;48.214;11.350;2023-06-26T03:14:33;11.40;;;9.10;;
1024;SDS011;501;48.214;11.350;2023-06-26T03:16:58;11.50;;;10.30;;
1024;SDS011;501;48.214;11.350;2023-06-26T03:19:28;11.97;;;9.50;;
1024;SDS011;501;48.214;11.350;2023-06-26T03:21:53;11.20;;;9.40;;
1024;SDS011;501;48.214;11.350;2023-06-26T03:24:20;11.27;;;9.00;;
1024;SDS011;501;48.214;11.350;2023-06-26T03:26:45;10.40;;;9.30;;
1024;SDS011;501;48.214;11.350;2023-06-26T03:29:11;10.40;;;8.90;;
1024;SDS011;501;48.214;11.350;2023-06-26T03:31:37;11.30;;;10.10;;
1024;SDS011;501;48.214;11.350;2023-06-26T03:34:03;10.50;;;9.10;;
1024;SDS011;501;48.214;11.350;2023-06-26T03:36:28;11.10;;;9.50;;
1024;SDS011;501;48.214;11.350;2023-06-26T03:38:54;11.30;;;9.50;;
1024;SDS011;501;48.214;11.350;2023-06-26T03:41:22;11.40;;;9.73;;
1024;SDS011;501;48.214;11.350;2023-06-26T03:43:48;10.10;;;9.03;;
1024;SDS011;501;48.214;11.350;2023-06-26T03:46:14;9.37;;;8.47;;
1024;SDS011;501;48.214;11.350;2023-06-26T03:48:39;12.97;;;10.40;;
1024;SDS011;501;48.214;11.350;2023-06-26T03:51:05;9.27;;;8.37;;
1024;SDS011;501;48.214;11.350;2023-06-26T03:53:32;11.83;;;9.63;;
1024;SDS011;501;48.214;11.350;2023-06-26T03:55:57;10.00;;;8.70;;
1024;SDS011;501;48.214;11.350;2023-06-26T03:58:23;12.43;;;9.53;;
1024;SDS011;501;48.214;11.350;2023-06-26T04:00:50;10.80;;;8.97;;
1024;SDS011;501;48.214;11.350;2023-06-26T04:03:16;10.83;;;9.37;;
1024;SDS011;501;48.214;11.350;2023-06-26T04:05:41;11.27;;;9.93;;
1024;SDS011;501;48.214;11.350;2023-06-26T04:08:07;11.90;;;9.87;;
1024;SDS011;501;48.214;11.350;2023-06-26T04:10:33;12.03;;;10.33;;
1024;SDS011;501;48.214;11.350;2023-06-26T04:13:01;14.23;;;10.17;;
1024;SDS011;501;48.214;11.350;2023-06-26T04:15:26;11.77;;;9.20;;
1024;SDS011;501;48.214;11.350;2023-06-26T04:17:52;9.87;;;8.67;;
1024;SDS011;501;48.214;11.350;2023-06-26T04:20:18;10.20;;;9.20;;
1024;SDS011;501;48.214;11.350;2023-06-26T04:22:43;12.20;;;9.57;;
1024;SDS011;501;48.214;11.350;2023-06-26T04:25:09;10.43;;;8.90;;
1024;SDS011;501;48.214;11.350;2023-06-26T04:27:36;10.20;;;9.20;;
1024;SDS011;501;48.214;11.350;2023-06-26T04:30:02;11.67;;;9.07;;
1024;SDS011;501;48.214;11.350;2023-06-26T04:32:28;10.93;;;8.70;;
1024;SDS011;501;48.214;11.350;2023-06-26T04:34:54;11.17;;;9.20;;
1024;SDS011;501;48.214;11.350;2023-06-26T04:37:19;10.53;;;8.40;;
1024;SDS011;501;48.214;11.350;2023-06-26T04:39:45;12.40;;;9.93;;
1024;SDS011;501;48.214;11.350;2023-06-26T04:42:10;14.10;;;9.73;;
1024;SDS011;501;48.214;11.350;2023-06-26T04:44:37;11.37;;;9.00;;
1024;SDS011;501;48.214;11.350;2023-06-26T04:47:03;10.60;;;9.30;;
1024;SDS011;501;48.214;11.350;2023-06-26T04:49:29;12.00;;;8.83;;
1024;SDS011;501;48.214;11.350;2023-06-26T04:51:55;10.70;;;8.93;;
1024;SDS011;501;48.214;11.350;2023-06-26T04:54:21;11.33;;;8.70;;
1024;SDS011;501;48.214;11.350;2023-06-26T04:56:47;12.10;;;8.57;;
1024;SDS011;501;48.214;11.350;2023-06-26T04:59:13;12.77;;;9.20;;
1024;SDS011;501;48.214;11.350;2023-06-26T05:01:39;11.00;;;9.70;;
1024;SDS011;501;48.214;11.350;2023-06-26T05:04:05;12.43;;;9.40;;
1024;SDS011;501;48.214;11.350;2023-06-26T05:06:32;9.60;;;8.17;;
1024;SDS011;501;48.214;11.350;2023-06-26T05:08:58;10.73;;;8.63;;
1024;SDS011;501;48.214;11.350;2023-06-26T05:11:24;10.97;;;9.17;;
1024;SDS011;501;48.214;11.350;2023-06-26T05:13:50;10.17;;;9.10;;
1024;SDS011;501;48.214;11.350;2023-06-26T05:16:15;13.17;;;8.97;;
1024;SDS011;501;48.214;11.350;2023-06-26T05:18:41;12.50;;;8.10;;
1024;SDS011;501;48.214;11.350;2023-06-26T05:21:07;9.93;;;8.33;;
1024;SDS011;501;48.214;11.350;2023-06-26T05:23:33;10.03;;;8.87;;
1024;SDS011;501;48.214;11.350;2023-06-26T05:26:00;9.60;;;8.60;;
1024;SDS011;501;48.214;11.350;2023-06-26T05:28:27;9.37;;;8.37;;
1024;SDS011;501;48.214;11.350;2023-06-26T05:30:55;9.10;;;8.20;;
1024;SDS011;501;48.214;11.350;2023-06-26T05:33:23;11.30;;;8.90;;
1024;SDS011;501;48.214;11.350;2023-06-26T05:35:51;11.87;;;9.00;;
1024;SDS011;501;48.214;11.350;2023-06-26T05:38:18;13.20;;;9.83;;
1024;SDS011;501;48.214;11.350;2023-06-26T05:40:44;11.27;;;9.13;;
1024;SDS011;501;48.214;11.350;2023-06-26T05:43:10;9.80;;;8.80;;
1024;SDS011;501;48.214;11.350;2023-06-26T05:45:36;9.87;;;8.87;;
1024;SDS011;501;48.214;11.350;2023-06-26T05:48:02;9.57;;;8.57;;
1024;SDS011;501;48.214;11.350;2023-06-26T05:50:27;10.03;;;9.03;;
1024;SDS011;501;48.214;11.350;2023-06-26T05:52:53;9.10;;;8.20;;
1024;SDS011;501;48.214;11.350;2023-06-26T05:55:20;9.93;;;8.90;;
1024;SDS011;501;48.214;11.350;2023-06-26T05:57:46;9.20;;;7.60;;
1024;SDS011;501;48.214;11.350;2023-06-26T06:00:12;9.77;;;8.77;;
1024;SDS011;501;48.214;11.350;2023-06-26T06:02:39;9.60;;;8.57;;
1024;SDS011;501;48.214;11.350;2023-06-26T06:05:05;9.30;;;8.40;;
1024;SDS011;501;48.214;11.350;2023-06-26T06:07:32;9.63;;;8.63;;
1024;SDS011;501;48.214;11.350;2023-06-26T06:09:58;11.07;;;9.47;;
1024;SDS011;501;48.214;11.350;2023-06-26T06:12:24;10.47;;;9.37;;
1024;SDS011;501;48.214;11.350;2023-06-26T06:14:50;10.67;;;9.23;;
1024;SDS011;501;48.214;11.350;2023-06-26T06:17:16;10.50;;;9.40;;
1024;SDS011;501;48.214;11.350;2023-06-26T06:19:42;12.33;;;8.87;;
1024;SDS011;501;48.214;11.350;2023-06-26T06:22:08;12.37;;;8.40;;
1024;SDS011;501;48.214;11.350;2023-06-26T06:24:33;10.13;;;8.30;;
1024;SDS011;501;48.214;11.350;2023-06-26T06:26:59;9.43;;;8.07;;
1024;SDS011;501;48.214;11.350;2023-06-26T06:29:24;9.63;;;7.80;;
1024;SDS011;501;48.214;11.350;2023-06-26T06:31:50;8.53;;;7.57;;
1024;SDS011;501;48.214;11.350;2023-06-26T06:34:16;8.10;;;7.30;;
1024;SDS011;501;48.214;11.350;2023-06-26T06:36:42;8.30;;;7.43;;
1024;SDS011;501;48.214;11.350;2023-06-26T06:39:07;9.07;;;8.17;;
1024;SDS011;501;48.214;11.350;2023-06-26T06:41:33;10.40;;;7.97;;
1024;SDS011;501;48.214;11.350;2023-06-26T06:43:59;9.00;;;7.60;;
1024;SDS011;501;48.214;11.350;2023-06-26T06:46:24;9.03;;;7.50;;
1024;SDS011;501;48.214;11.350;2023-06-26T06:48:52;9.60;;;7.60;;
1024;SDS011;501;48.214;11.350;2023-06-26T06:51:18;8.63;;;7.23;;
1024;SDS011;501;48.214;11.350;2023-06-26T06:53:43;7.80;;;7.07;;
1024;SDS011;501;48.214;11.350;2023-06-26T06:56:09;8.30;;;7.50;;
1024;SDS011;501;48.214;11.350;2023-06-26T06:58:35;8.07;;;7.27;;
1024;SDS011;501;48.214;11.350;2023-06-26T07:01:00;7.17;;;6.47;;
1024;SDS011;501;48.214;11.350;2023-06-26T07:03:27;8.40;;;7.43;;
1024;SDS011;501;48.214;11.350;2023-06-26T07:05:53;10.03;;;7.40;;
1024;SDS011;501;48.214;11.350;2023-06-26T07:08:18;7.13;;;6.43;;
1024;SDS011;501;48.214;11.350;2023-06-26T07:10:44;8.50;;;7.70;;
1024;SDS011;501;48.214;11.350;2023-06-26T07:13:10;8.77;;;7.97;;
1024;SDS011;501;48.214;11.350;2023-06-26T07:15:35;10.10;;;7.40;;
1024;SDS011;501;48.214;11.350;2023-06-26T07:18:01;8.13;;;7.03;;
1024;SDS011;501;48.214;11.350;2023-06-26T07:20:26;8.67;;;7.77;;
1024;SDS011;501;48.214;11.350;2023-06-26T07:22:52;8.30;;;7.23;;
1024;SDS011;501;48.214;11.350;2023-06-26T07:25:18;8.47;;;7.63;;
1024;SDS011;501;48.214;11.350;2023-06-26T07:27:43;7.77;;;7.03;;
1024;SDS011;501;48.214;11.350;2023-06-26T07:30:10;7.57;;;6.77;;
1024;SDS011;501;48.214;11.350;2023-06-26T07:32:36;8.93;;;7.90;;
1024;SDS011;501;48.214;11.350;2023-06-26T07:35:02;7.97;;;7.10;;
1024;SDS011;501;48.214;11.350;2023-06-26T07:37:28;7.63;;;6.93;;
1024;SDS011;501;48.214;11.350;2023-06-26T07:39:54;8.63;;;7.77;;
1024;SDS011;501;48.214;11.350;2023-06-26T07:42:20;8.23;;;7.33;;
1024;SDS011;501;48.214;11.350;2023-06-26T07:44:45;9.00;;;7.60;;
1024;SDS011;501;48.214;11.350;2023-06-26T07:47:11;9.23;;;7.33;;
1024;SDS011;501;48.214;11.350;2023-06-26T07:49:37;9.43;;;7.20;;
1024;SDS011;501;48.214;11.350;2023-06-26T07:52:04;8.37;;;7.57;;
1024;SDS011;501;48.214;11.350;2023-06-26T07:54:30;7.67;;;6.90;;
1024;SDS011;501;48.214;11.350;2023-06-26T07:56:56;8.13;;;7.33;;
1024;SDS011;501;48.214;11.350;2023-06-26T07:59:23;9.17;;;7.40;;
1024;SDS011;501;48.214;11.350;2023-06-26T08:01:49;8.70;;;6.93;;
1024;SDS011;501;48.214;11.350;2023-06-26T08:04:17;7.53;;;6.40;;
1024;SDS011;501;48.214;11.350;2023-06-26T08:06:44;8.17;;;7.13;;
1024;SDS011;501;48.214;11.350;2023-06-26T08:09:10;9.17;;;6.90;;
1024;SDS011;501;48.214;11.350;2023-06-26T08:11:37;7.67;;;6.97;;
1024;SDS011;501;48.214;11.350;2023-06-26T08:14:03;10.20;;;6.70;;
1024;SDS011;501;48.214;11.350;2023-06-26T08:16:29;7.37;;;6.63;;
1024;SDS011;501;48.214;11.350;2023-06-26T08:18:54;8.30;;;7.53;;
1024;SDS011;501;48.214;11.350;2023-06-26T08:21:20;8.80;;;7.00;;
1024;SDS011;501;48.214;11.350;2023-06-26T08:23:45;8.00;;;7.00;;
1024;SDS011;501;48.214;11.350;2023-06-26T08:26:11;7.30;;;6.60;;
1024;SDS011;501;48.214;11.350;2023-06-26T08:28:38;7.83;;;7.10;;
1024;SDS011;501;48.214;11.350;2023-06-26T08:31:03;9.37;;;6.30;;
1024;SDS011;501;48.214;11.350;2023-06-26T08:33:29;8.33;;;6.93;;
1024;SDS011;501;48.214;11.350;2023-06-26T08:35:55;10.03;;;6.80;;
1024;SDS011;501;48.214;11.350;2023-06-26T08:38:20;7.00;;;6.40;;
1024;SDS011;501;48.214;11.350;2023-06-26T08:40:46;7.90;;;7.20;;
1024;SDS011;501;48.214;11.350;2023-06-26T08:43:12;7.83;;;7.10;;
1024;SDS011;501;48.214;11.350;2023-06-26T08:45:38;6.77;;;6.17;;
1024;SDS011;501;48.214;11.350;2023-06-26T08:48:03;6.50;;;5.90;;
1024;SDS011;501;48.214;11.350;2023-06-26T08:50:33;8.40;;;6.83;;
1024;SDS011;501;48.214;11.350;2023-06-26T08:55:55;6.70;;;6.10;;
1024;SDS011;501;48.214;11.350;2023-06-26T08:58:23;7.80;;;7.10;;
1024;SDS011;501;48.214;11.350;2023-06-26T09:00:49;7.47;;;6.33;;
1024;SDS011;501;48.214;11.350;2023-06-26T09:03:15;6.10;;;5.60;;
1024;SDS011;501;48.214;11.350;2023-06-26T09:05:41;6.47;;;5.87;;
1024;SDS011;501;48.214;11.350;2023-06-26T09:08:07;7.60;;;6.40;;
1024;SDS011;501;48.214;11.350;2023-06-26T09:10:33;6.37;;;5.77;;
1024;SDS011;501;48.214;11.350;2023-06-26T09:12:59;6.00;;;5.40;;
1024;SDS011;501;48.214;11.350;2023-06-26T09:15:26;6.33;;;5.60;;
1024;SDS011;501;48.214;11.350;2023-06-26T09:17:56;5.10;;;4.70;;
1024;SDS011;501;48.214;11.350;2023-06-26T09:20:22;5.83;;;5.33;;
1024;SDS011;501;48.214;11.350;2023-06-26T09:22:48;7.83;;;6.17;;
1024;SDS011;501;48.214;11.350;2023-06-26T09:25:14;6.33;;;5.73;;
1024;SDS011;501;48.214;11.350;2023-06-26T09:27:42;8.20;;;5.37;;
1024;SDS011;501;48.214;11.350;2023-06-26T09:30:09;6.10;;;5.03;;
1024;SDS011;501;48.214;11.350;2023-06-26T09:32:35;6.10;;;5.27;;
1024;SDS011;501;48.214;11.350;2023-06-26T09:35:02;5.20;;;4.80;;
1024;SDS011;501;48.214;11.350;2023-06-26T09:37:28;6.13;;;5.20;;
1024;SDS011;501;48.214;11.350;2023-06-26T09:39:54;5.57;;;4.93;;
1024;SDS011;501;48.214;11.350;2023-06-26T09:42:20;6.10;;;5.50;;
1024;SDS011;501;48.214;11.350;2023-06-26T09:44:46;6.30;;;5.80;;
1024;SDS011;501;48.214;11.350;2023-06-26T09:47:13;5.40;;;5.00;;
1024;SDS011;501;48.214;11.350;2023-06-26T09:49:42;5.57;;;5.10;;
1024;SDS011;501;48.214;11.350;2023-06-26T09:52:08;6.50;;;5.90;;
1024;SDS011;501;48.214;11.350;2023-06-26T09:54:34;6.10;;;5.50;;
1024;SDS011;501;48.214;11.350;2023-06-26T09:57:06;5.77;;;5.13;;
1024;SDS011;501;48.214;11.350;2023-06-26T09:59:42;6.00;;;5.40;;
1024;SDS011;501;48.214;11.350;2023-06-26T10:02:11;5.63;;;5.13;;
1024;SDS011;501;48.214;11.350;2023-06-26T10:04:37;6.27;;;5.70;;
1024;SDS011;501;48.214;11.350;2023-06-26T10:07:07;6.20;;;5.67;;
1024;SDS011;501;48.214;11.350;2023-06-26T10:09:36;5.83;;;5.23;;
1024;SDS011;501;48.214;11.350;2023-06-26T10:12:06;5.57;;;5.03;;
1024;SDS011;501;48.214;11.350;2023-06-26T10:14:41;5.70;;;5.20;;
1024;SDS011;501;48.214;11.350;2023-06-26T10:17:10;7.03;;;5.03;;
1024;SDS011;501;48.214;11.350;2023-06-26T10:19:41;5.70;;;5.10;;
1024;SDS011;501;48.214;11.350;2023-06-26T10:22:09;5.50;;;5.00;;
1024;SDS011;501;48.214;11.350;2023-06-26T10:24:47;5.83;;;5.27;;
1024;SDS011;501;48.214;11.350;2023-06-26T10:27:15;5.17;;;4.70;;
1024;SDS011;501;48.214;11.350;2023-06-26T10:29:46;5.87;;;5.37;;
1024;SDS011;501;48.214;11.350;2023-06-26T10:32:21;6.60;;;5.47;;
1024;SDS011;501;48.214;11.350;2023-06-26T10:34:49;5.43;;;4.93;;
1024;SDS011;501;48.214;11.350;2023-06-26T10:37:15;5.40;;;5.00;;
1024;SDS011;501;48.214;11.350;2023-06-26T10:39:51;6.73;;;5.80;;
1024;SDS011;501;48.214;11.350;2023-06-26T10:42:19;6.30;;;5.70;;
1024;SDS011;501;48.214;11.350;2023-06-26T10:44:59;5.60;;;5.10;;
1024;SDS011;501;48.214;11.350;2023-06-26T10:47:41;6.30;;;5.60;;
1024;SDS011;501;48.214;11.350;2023-06-26T10:50:23;6.03;;;5.50;;
1024;SDS011;501;48.214;11.350;2023-06-26T10:53:12;5.50;;;5.10;;
1024;SDS011;501;48.214;11.350;2023-06-26T11:03:37;7.07;;;6.30;;
1024;SDS011;501;48.214;11.350;2023-06-26T11:06:13;6.93;;;6.27;;
1024;SDS011;501;48.214;11.350;2023-06-26T11:08:47;6.43;;;5.47;;
1024;SDS011;501;48.214;11.350;2023-06-26T11:11:14;5.87;;;5.37;;
1024;SDS011;501;48.214;11.350;2023-06-26T11:13:41;6.57;;;5.20;;
1024;SDS011;501;48.214;11.350;2023-06-26T11:16:07;9.27;;;6.30;;
1024;SDS011;501;48.214;11.350;2023-06-26T11:18:33;5.43;;;5.03;;
1024;SDS011;501;48.214;11.350;2023-06-26T11:21:05;6.50;;;5.90;;
1024;SDS011;501;48.214;11.350;2023-06-26T11:23:36;7.23;;;6.63;;
1024;SDS011;501;48.214;11.350;2023-06-26T11:26:18;6.57;;;5.63;;
1024;SDS011;501;48.214;11.350;2023-06-26T11:28:51;7.57;;;6.00;;
1024;SDS011;501;48.214;11.350;2023-06-26T11:34:23;8.10;;;6.80;;
1024;SDS011;501;48.214;11.350;2023-06-26T11:36:50;7.63;;;5.33;;
1024;SDS011;501;48.214;11.350;2023-06-26T11:39:16;7.50;;;6.90;;
1024;SDS011;501;48.214;11.350;2023-06-26T11:41:41;6.73;;;6.10;;
1024;SDS011;501;48.214;11.350;2023-06-26T11:44:10;7.00;;;6.40;;
1024;SDS011;501;48.214;11.350;2023-06-26T11:46:35;6.30;;;5.80;;
1024;SDS011;501;48.214;11.350;2023-06-26T11:49:02;6.80;;;6.20;;
1024;SDS011;501;48.214;11.350;2023-06-26T11:51:29;6.73;;;5.90;;
1024;SDS011;501;48.214;11.350;2023-06-26T11:53:55;5.87;;;5.30;;
1024;SDS011;501;48.214;11.350;2023-06-26T11:56:20;6.63;;;6.13;;
1024;SDS011;501;48.214;11.350;2023-06-26T12:01:35;6.00;;;5.43;;
1024;SDS011;501;48.214;11.350;2023-06-26T12:04:03;7.07;;;6.47;;
1024;SDS011;501;48.214;11.350;2023-06-26T12:06:30;6.60;;;6.00;;
1024;SDS011;501;48.214;11.350;2023-06-26T12:08:58;6.70;;;6.10;;
1024;SDS011;501;48.214;11.350;2023-06-26T12:11:27;6.77;;;6.17;;
1024;SDS011;501;48.214;11.350;2023-06-26T12:13:54;6.50;;;6.00;;
1024;SDS011;501;48.214;11.350;2023-06-26T12:16:20;7.00;;;6.40;;
1024;SDS011;501;48.214;11.350;2023-06-26T12:18:46;6.53;;;6.03;;
1024;SDS011;501;48.214;11.350;2023-06-26T12:24:10;7.07;;;6.47;;
1024;SDS011;501;48.214;11.350;2023-06-26T12:26:41;8.80;;;6.20;;
1024;SDS011;501;48.214;11.350;2023-06-26T12:31:50;7.10;;;6.50;;
1024;SDS011;501;48.214;11.350;2023-06-26T12:34:18;6.67;;;6.10;;
1024;SDS011;501;48.214;11.350;2023-06-26T12:36:46;7.90;;;6.33;;
1024;SDS011;501;48.214;11.350;2023-06-26T12:39:15;6.40;;;5.80;;
1024;SDS011;501;48.214;11.350;2023-06-26T12:42:08;8.67;;;6.60;;
1024;SDS011;501;48.214;11.350;2023-06-26T12:44:32;7.50;;;6.63;;
1024;SDS011;501;48.214;11.350;2023-06-26T12:46:59;7.77;;;7.00;;
1024;SDS011;501;48.214;11.350;2023-06-26T12:49:29;7.10;;;6.40;;
1024;SDS011;501;48.214;11.350;2023-06-26T12:51:56;8.00;;;7.30;;
1024;SDS011;501;48.214;11.350;2023-06-26T12:54:22;7.40;;;6.70;;
1024;SDS011;501;48.214;11.350;2023-06-26T12:56:48;7.27;;;6.60;;
1024;SDS011;501;48.214;11.350;2023-06-26T12:59:14;7.30;;;6.70;;
1024;SDS011;501;48.214;11.350;2023-06-26T13:01:39;8.13;;;7.10;;
1024;SDS011;501;48.214;11.350;2023-06-26T13:04:05;6.83;;;6.23;;
1024;SDS011;501;48.214;11.350;2023-06-26T13:06:31;6.87;;;6.30;;
1024;SDS011;501;48.214;11.350;2023-06-26T13:08:57;7.90;;;7.20;;
1024;SDS011;501;48.214;11.350;2023-06-26T13:11:23;7.07;;;6.47;;
1024;SDS011;501;48.214;11.350;2023-06-26T13:13:49;8.00;;;7.30;;
1024;SDS011;501;48.214;11.350;2023-06-26T13:16:14;7.83;;;7.03;;
1024;SDS011;501;48.214;11.350;2023-06-26T13:18:41;7.70;;;7.00;;
1024;SDS011;501;48.214;11.350;2023-06-26T13:21:06;7.50;;;6.90;;
1024;SDS011;501;48.214;11.350;2023-06-26T13:23:32;9.37;;;8.47;;
1024;SDS011;501;48.214;11.350;2023-06-26T13:25:58;9.57;;;8.77;;
1024;SDS011;501;48.214;11.350;2023-06-26T13:28:23;8.00;;;7.20;;
1024;SDS011;501;48.214;11.350;2023-06-26T13:30:49;7.60;;;6.63;;
1024;SDS011;501;48.214;11.350;2023-06-26T13:33:14;7.60;;;6.90;;
1024;SDS011;501;48.214;11.350;2023-06-26T13:35:41;8.60;;;7.63;;
1024;SDS011;501;48.214;11.350;2023-06-26T13:38:06;8.00;;;7.30;;
1024;SDS011;501;48.214;11.350;2023-06-26T13:40:32;7.93;;;7.13;;
1024;SDS011;501;48.214;11.350;2023-06-26T13:42:57;6.97;;;6.37;;
1024;SDS011;501;48.214;11.350;2023-06-26T13:45:24;7.37;;;6.77;;
1024;SDS011;501;48.214;11.350;2023-06-26T13:47:50;10.23;;;6.93;;
1024;SDS011;501;48.214;11.350;2023-06-26T13:50:16;6.80;;;6.20;;
1024;SDS011;501;48.214;11.350;2023-06-26T13:52:41;8.10;;;6.90;;
1024;SDS011;501;48.214;11.350;2023-06-26T13:55:07;8.07;;;7.23;;
1024;SDS011;501;48.214;11.350;2023-06-26T13:57:33;7.70;;;6.90;;
1024;SDS011;501;48.214;11.350;2023-06-26T13:59:59;8.20;;;7.00;;
1024;SDS011;501;48.214;11.350;2023-06-26T14:02:24;7.03;;;6.40;;
1024;SDS011;501;48.214;11.350;2023-06-26T14:04:51;7.40;;;6.60;;
1024;SDS011;501;48.214;11.350;2023-06-26T14:07:17;8.10;;;6.60;;
1024;SDS011;501;48.214;11.350;2023-06-26T14:09:42;9.27;;;8.37;;
1024;SDS011;501;48.214;11.350;2023-06-26T14:12:08;8.20;;;7.40;;
1024;SDS011;501;48.214;11.350;2023-06-26T14:14:34;8.57;;;7.83;;
1024;SDS011;501;48.214;11.350;2023-06-26T14:16:59;9.03;;;8.13;;
1024;SDS011;501;48.214;11.350;2023-06-26T14:19:25;9.00;;;8.20;;
1024;SDS011;501;48.214;11.350;2023-06-26T14:21:51;11.90;;;8.73;;
1024;SDS011;501;48.214;11.350;2023-06-26T14:24:17;8.80;;;7.90;;
1024;SDS011;501;48.214;11.350;2023-06-26T14:26:42;9.47;;;8.57;;
1024;SDS011;501;48.214;11.350;2023-06-26T14:29:08;10.33;;;9.30;;
1024;SDS011;501;48.214;11.350;2023-06-26T14:31:33;9.00;;;8.10;;
1024;SDS011;501;48.214;11.350;2023-06-26T14:33:59;8.97;;;8.17;;
1024;SDS011;501;48.214;11.350;2023-06-26T14:36:25;8.90;;;8.10;;
1024;SDS011;501;48.214;11.350;2023-06-26T14:38:52;8.57;;;7.77;;
1024;SDS011;501;48.214;11.350;2023-06-26T14:41:17;8.60;;;7.90;;
1024;SDS011;501;48.214;11.350;2023-06-26T14:43:43;6.93;;;6.30;;
1024;SDS011;501;48.214;11.350;2023-06-26T14:46:10;8.43;;;6.80;;
1024;SDS011;501;48.214;11.350;2023-06-26T14:48:36;7.97;;;7.17;;
1024;SDS011;501;48.214;11.350;2023-06-26T14:51:02;7.80;;;7.20;;
1024;SDS011;501;48.214;11.350;2023-06-26T14:53:27;7.23;;;6.53;;
1024;SDS011;501;48.214;11.350;2023-06-26T14:55:53;7.30;;;6.70;;
1024;SDS011;501;48.214;11.350;2023-06-26T14:58:19;7.53;;;6.93;;
1024;SDS011;501;48.214;11.350;2023-06-26T15:00:44;6.90;;;6.40;;
1024;SDS011;501;48.214;11.350;2023-06-26T15:03:10;7.83;;;7.20;;
1024;SDS011;501;48.214;11.350;2023-06-26T15:05:36;7.10;;;6.50;;
1024;SDS011;501;48.214;11.350;2023-06-26T15:08:02;7.30;;;6.50;;
1024;SDS011;501;48.214;11.350;2023-06-26T15:10:27;7.47;;;6.87;;
1024;SDS011;501;48.214;11.350;2023-06-26T15:12:53;7.83;;;7.20;;
1024;SDS011;501;48.214;11.350;2023-06-26T15:15:19;6.80;;;6.30;;
1024;SDS011;501;48.214;11.350;2023-06-26T15:17:44;8.70;;;7.67;;
1024;SDS011;501;48.214;11.350;2023-06-26T15:20:10;8.03;;;7.33;;
1024;SDS011;501;48.214;11.350;2023-06-26T15:22:36;7.90;;;7.10;;
1024;SDS011;501;48.214;11.350;2023-06-26T15:25:01;7.60;;;6.93;;
1024;SDS011;501;48.214;11.350;2023-06-26T15:27:27;7.30;;;6.70;;
1024;SDS011;501;48.214;11.350;2023-06-26T15:29:53;7.07;;;6.47;;
1024;SDS011;501;48.214;11.350;2023-06-26T15:32:19;6.70;;;6.20;;